sensor_id;sensor_type;location;lat;lon;timestamp;pressure;altitude;pressure_sealevel;temperature;humidity
30856;BME280;17570;0.000;0.000;2023-06-14T00:01:04;96679.58;;;25.62;49.20
30856;BME280;17570;0.000;0.000;2023-06-14T00:03:32;96679.00;;;25.60;49.30
30856;BME280;17570;0.000;0.000;2023-06-14T00:06:00;96687.41;;;25.57;49.52
30856;BME280;17570;0.000;0.000;2023-06-14T00:08:27;96678.39;;;25.58;49.17
30856;BME280;17570;0.000;0.000;2023-06-14T00:10:55;96674.12;;;25.57;49.35
30856;BME280;17570;0.000;0.000;2023-06-14T00:13:22;96678.84;;;25.55;49.44
30856;BME280;17570;0.000;0.000;2023-06-14T00:15:50;96675.73;;;25.58;49.32
30856;BME280;17570;0.000;0.000;2023-06-14T00:18:19;96672.04;;;25.59;49.06
30856;BME280;17570;0.000;0.000;2023-06-14T00:20:48;96664.97;;;25.53;49.29
30856;BME280;17570;0.000;0.000;2023-06-14T00:23:15;96672.13;;;25.53;49.35
30856;BME280;17570;0.000;0.000;2023-06-14T00:25:43;96668.44;;;25.54;49.31
30856;BME280;17570;0.000;0.000;2023-06-14T00:28:10;96670.28;;;25.53;49.32
30856;BME280;17570;0.000;0.000;2023-06-14T00:30:38;96662.75;;;25.50;49.14
30856;BME280;17570;0.000;0.000;2023-06-14T00:33:05;96665.41;;;25.50;49.30
30856;BME280;17570;0.000;0.000;2023-06-14T00:35:33;96664.59;;;25.50;49.50
30856;BME280;17570;0.000;0.000;2023-06-14T00:38:00;96672.80;;;25.48;49.35
30856;BME280;17570;0.000;0.000;2023-06-14T00:40:28;96663.42;;;25.45;49.55
30856;BME280;17570;0.000;0.000;2023-06-14T00:42:56;96670.81;;;25.43;49.58
30856;BME280;17570;0.000;0.000;2023-06-14T00:45:23;96668.97;;;25.44;49.75
30856;BME280;17570;0.000;0.000;2023-06-14T00:47:51;96651.98;;;25.45;49.54
30856;BME280;17570;0.000;0.000;2023-06-14T00:50:20;96657.67;;;25.49;49.26
30856;BME280;17570;0.000;0.000;2023-06-14T00:52:49;96654.44;;;25.47;49.37
30856;BME280;17570;0.000;0.000;2023-06-14T00:55:17;96654.87;;;25.43;49.48
30856;BME280;17570;0.000;0.000;2023-06-14T00:57:45;96657.30;;;25.45;49.29
30856;BME280;17570;0.000;0.000;2023-06-14T01:00:14;96654.06;;;25.43;49.31
30856;BME280;17570;0.000;0.000;2023-06-14T01:02:42;96652.45;;;25.42;49.75
30856;BME280;17570;0.000;0.000;2023-06-14T01:05:09;96651.27;;;25.38;49.78
30856;BME280;17570;0.000;0.000;2023-06-14T01:15:22;96631.72;;;25.32;49.99
30856;BME280;17570;0.000;0.000;2023-06-14T01:17:50;96633.34;;;25.33;49.87
30856;BME280;17570;0.000;0.000;2023-06-14T01:20:27;96627.92;;;25.40;49.72
30856;BME280;17570;0.000;0.000;2023-06-14T01:22:51;96622.41;;;25.41;49.64
30856;BME280;17570;0.000;0.000;2023-06-14T01:25:20;96621.80;;;25.39;49.50
30856;BME280;17570;0.000;0.000;2023-06-14T01:27:59;96624.33;;;25.34;49.86
30856;BME280;17570;0.000;0.000;2023-06-14T01:30:21;96620.62;;;25.35;49.70
30856;BME280;17570;0.000;0.000;2023-06-14T01:32:52;96616.59;;;25.33;49.67
30856;BME280;17570;0.000;0.000;2023-06-14T01:35:21;96626.17;;;25.34;49.80
30856;BME280;17570;0.000;0.000;2023-06-14T01:37:49;96625.94;;;25.35;49.53
30856;BME280;17570;0.000;0.000;2023-06-14T01:40:17;96622.70;;;25.33;49.63
30856;BME280;17570;0.000;0.000;2023-06-14T01:42:46;96626.75;;;25.36;49.38
30856;BME280;17570;0.000;0.000;2023-06-14T01:45:14;96621.44;;;25.36;49.47
30856;BME280;17570;0.000;0.000;2023-06-14T01:47:43;96621.90;;;25.33;49.32
30856;BME280;17570;0.000;0.000;2023-06-14T01:50:11;96625.94;;;25.35;49.31
30856;BME280;17570;0.000;0.000;2023-06-14T01:52:38;96626.75;;;25.36;49.26
30856;BME280;17570;0.000;0.000;2023-06-14T01:55:06;96627.22;;;25.33;49.23
30856;BME280;17570;0.000;0.000;2023-06-14T01:57:34;96628.02;;;25.33;49.10
30856;BME280;17570;0.000;0.000;2023-06-14T02:00:03;96626.41;;;25.32;49.08
30856;BME280;17570;0.000;0.000;2023-06-14T02:02:32;96628.83;;;25.34;48.91
30856;BME280;17570;0.000;0.000;2023-06-14T02:04:59;96634.58;;;25.31;49.27
30856;BME280;17570;0.000;0.000;2023-06-14T02:07:28;96638.05;;;25.31;49.32
30856;BME280;17570;0.000;0.000;2023-06-14T02:09:55;96649.34;;;25.27;49.33
30856;BME280;17570;0.000;0.000;2023-06-14T02:12:23;96644.63;;;25.29;49.27
30856;BME280;17570;0.000;0.000;2023-06-14T02:14:50;96651.56;;;25.30;49.27
30856;BME280;17570;0.000;0.000;2023-06-14T02:17:18;96645.67;;;25.28;49.50
30856;BME280;17570;0.000;0.000;2023-06-14T02:19:46;96649.95;;;25.29;49.25
30856;BME280;17570;0.000;0.000;2023-06-14T02:22:13;96653.41;;;25.29;49.22
30856;BME280;17570;0.000;0.000;2023-06-14T02:24:41;96652.80;;;25.27;49.34
30856;BME280;17570;0.000;0.000;2023-06-14T02:27:09;96657.31;;;25.27;49.35
30856;BME280;17570;0.000;0.000;2023-06-14T02:29:39;96656.73;;;25.25;49.52
30856;BME280;17570;0.000;0.000;2023-06-14T02:32:06;96653.84;;;25.26;49.40
30856;BME280;17570;0.000;0.000;2023-06-14T02:34:34;96664.70;;;25.25;49.50
30856;BME280;17570;0.000;0.000;2023-06-14T02:37:02;96657.55;;;25.25;49.25
30856;BME280;17570;0.000;0.000;2023-06-14T02:39:29;96654.08;;;25.25;49.18
30856;BME280;17570;0.000;0.000;2023-06-14T02:41:57;96654.66;;;25.27;49.21
30856;BME280;17570;0.000;0.000;2023-06-14T02:44:26;96665.52;;;25.25;49.18
30856;BME280;17570;0.000;0.000;2023-06-14T02:46:54;96669.41;;;25.23;49.21
30856;BME280;17570;0.000;0.000;2023-06-14T02:49:22;96667.80;;;25.22;49.33
30856;BME280;17570;0.000;0.000;2023-06-14T02:51:49;96676.80;;;25.21;49.44
30856;BME280;17570;0.000;0.000;2023-06-14T02:54:17;96678.42;;;25.22;49.36
30856;BME280;17570;0.000;0.000;2023-06-14T02:56:44;96684.20;;;25.18;49.44
30856;BME280;17570;0.000;0.000;2023-06-14T02:59:12;96680.13;;;25.16;49.59
30856;BME280;17570;0.000;0.000;2023-06-14T03:01:40;96678.51;;;25.15;49.39
30856;BME280;17570;0.000;0.000;2023-06-14T03:04:09;96677.70;;;25.14;49.39
30856;BME280;17570;0.000;0.000;2023-06-14T03:06:38;96685.06;;;25.12;49.66
30856;BME280;17570;0.000;0.000;2023-06-14T03:09:07;96693.03;;;25.12;49.60
30856;BME280;17570;0.000;0.000;2023-06-14T03:11:37;96690.75;;;25.16;49.39
30856;BME280;17570;0.000;0.000;2023-06-14T03:14:05;96698.06;;;25.21;49.21
30856;BME280;17570;0.000;0.000;2023-06-14T03:16:35;96693.32;;;25.23;49.26
30856;BME280;17570;0.000;0.000;2023-06-14T03:19:04;96703.38;;;25.21;49.48
30856;BME280;17570;0.000;0.000;2023-06-14T03:21:32;96698.72;;;25.16;49.47
30856;BME280;17570;0.000;0.000;2023-06-14T03:24:02;96703.22;;;25.15;49.47
30856;BME280;17570;0.000;0.000;2023-06-14T03:26:30;96705.45;;;25.18;49.36
30856;BME280;17570;0.000;0.000;2023-06-14T03:28:59;96702.19;;;25.16;49.23
30856;BME280;17570;0.000;0.000;2023-06-14T03:31:28;96703.45;;;25.14;49.21
30856;BME280;17570;0.000;0.000;2023-06-14T03:33:59;96708.30;;;25.17;49.33
30856;BME280;17570;0.000;0.000;2023-06-14T03:36:26;96704.27;;;25.14;49.24
30856;BME280;17570;0.000;0.000;2023-06-14T03:38:54;96702.64;;;25.13;49.33
30856;BME280;17570;0.000;0.000;2023-06-14T03:41:22;96707.95;;;25.13;49.33
30856;BME280;17570;0.000;0.000;2023-06-14T03:43:50;96707.95;;;25.13;49.08
30856;BME280;17570;0.000;0.000;2023-06-14T03:46:18;96708.77;;;25.14;48.98
30856;BME280;17570;0.000;0.000;2023-06-14T03:48:45;96707.50;;;25.16;49.03
30856;BME280;17570;0.000;0.000;2023-06-14T03:51:13;96714.89;;;25.14;48.97
30856;BME280;17570;0.000;0.000;2023-06-14T03:53:41;96718.58;;;25.13;48.86
30856;BME280;17570;0.000;0.000;2023-06-14T03:56:08;96715.92;;;25.13;48.80
30856;BME280;17570;0.000;0.000;2023-06-14T03:58:38;96722.05;;;25.14;48.92
30856;BME280;17570;0.000;0.000;2023-06-14T04:01:05;96730.22;;;25.12;48.88
30856;BME280;17570;0.000;0.000;2023-06-14T04:03:33;96732.88;;;25.12;49.00
30856;BME280;17570;0.000;0.000;2023-06-14T04:06:01;96731.02;;;25.13;48.80
30856;BME280;17570;0.000;0.000;2023-06-14T04:08:28;96737.38;;;25.12;48.79
30856;BME280;17570;0.000;0.000;2023-06-14T04:10:57;96734.95;;;25.10;48.74
30856;BME280;17570;0.000;0.000;2023-06-14T04:13:25;96739.22;;;25.11;48.72
30856;BME280;17570;0.000;0.000;2023-06-14T04:15:53;96732.67;;;25.14;48.61
30856;BME280;17570;0.000;0.000;2023-06-14T04:18:24;96735.33;;;25.14;48.38
30856;BME280;17570;0.000;0.000;2023-06-14T04:20:52;96737.19;;;25.07;48.52
30856;BME280;17570;0.000;0.000;2023-06-14T04:23:20;96743.34;;;25.07;48.75
30856;BME280;17570;0.000;0.000;2023-06-14T04:25:48;96735.38;;;25.07;48.64
30856;BME280;17570;0.000;0.000;2023-06-14T04:28:16;96739.65;;;25.08;48.60
30856;BME280;17570;0.000;0.000;2023-06-14T04:30:45;96750.28;;;25.08;48.40
30856;BME280;17570;0.000;0.000;2023-06-14T04:33:15;96752.75;;;25.03;48.87
30856;BME280;17570;0.000;0.000;2023-06-14T04:35:44;96754.39;;;25.04;48.46
30856;BME280;17570;0.000;0.000;2023-06-14T04:38:14;96754.59;;;25.03;48.59
30856;BME280;17570;0.000;0.000;2023-06-14T04:40:42;96757.05;;;25.04;48.31
30856;BME280;17570;0.000;0.000;2023-06-14T04:43:12;96763.83;;;25.00;48.50
30856;BME280;17570;0.000;0.000;2023-06-14T04:45:42;96758.94;;;24.97;48.82
30856;BME280;17570;0.000;0.000;2023-06-14T04:48:12;96762.63;;;24.96;48.82
30856;BME280;17570;0.000;0.000;2023-06-14T04:50:40;96763.02;;;25.00;48.36
30856;BME280;17570;0.000;0.000;2023-06-14T04:53:09;96773.19;;;25.03;48.34
30856;BME280;17570;0.000;0.000;2023-06-14T04:55:37;96680.34;;;24.46;48.43
30856;BME280;17570;0.000;0.000;2023-06-14T04:58:05;96766.48;;;25.00;48.15
30856;BME280;17570;0.000;0.000;2023-06-14T05:00:33;96770.98;;;25.00;48.15
30856;BME280;17570;0.000;0.000;2023-06-14T05:03:02;96773.41;;;25.01;48.04
30856;BME280;17570;0.000;0.000;2023-06-14T05:05:31;96767.48;;;24.99;48.25
30856;BME280;17570;0.000;0.000;2023-06-14T05:07:59;96774.06;;;24.97;48.49
30856;BME280;17570;0.000;0.000;2023-06-14T05:10:27;96776.95;;;24.95;48.54
30856;BME280;17570;0.000;0.000;2023-06-14T05:12:55;96776.33;;;24.93;48.61
30856;BME280;17570;0.000;0.000;2023-06-14T05:15:23;96773.84;;;24.98;48.56
30856;BME280;17570;0.000;0.000;2023-06-14T05:17:52;96782.41;;;25.00;48.34
30856;BME280;17570;0.000;0.000;2023-06-14T05:20:22;96784.46;;;24.98;48.52
30856;BME280;17570;0.000;0.000;2023-06-14T05:22:51;96784.46;;;24.98;48.39
30856;BME280;17570;0.000;0.000;2023-06-14T05:25:19;96785.08;;;25.00;48.29
30856;BME280;17570;0.000;0.000;2023-06-14T05:27:47;96783.23;;;25.01;48.33
30856;BME280;17570;0.000;0.000;2023-06-14T05:30:15;96788.73;;;24.99;48.25
30856;BME280;17570;0.000;0.000;2023-06-14T05:32:43;96790.38;;;25.00;48.39
30856;BME280;17570;0.000;0.000;2023-06-14T05:35:11;96790.97;;;25.02;48.18
30856;BME280;17570;0.000;0.000;2023-06-14T05:37:39;96796.28;;;25.02;48.18
30856;BME280;17570;0.000;0.000;2023-06-14T05:40:08;96802.02;;;24.99;48.29
30856;BME280;17570;0.000;0.000;2023-06-14T05:42:36;96802.40;;;25.03;48.13
30856;BME280;17570;0.000;0.000;2023-06-14T05:45:03;96800.78;;;25.02;48.21
30856;BME280;17570;0.000;0.000;2023-06-14T05:47:34;96790.38;;;25.00;48.19
30856;BME280;17570;0.000;0.000;2023-06-14T05:50:02;96799.97;;;25.01;48.68
30856;BME280;17570;0.000;0.000;2023-06-14T05:52:29;96796.89;;;25.04;48.58
30856;BME280;17570;0.000;0.000;2023-06-14T05:54:59;96794.66;;;25.01;48.27
30856;BME280;17570;0.000;0.000;2023-06-14T05:57:27;96799.93;;;25.08;48.32
30856;BME280;17570;0.000;0.000;2023-06-14T05:59:55;96796.66;;;25.06;48.52
30856;BME280;17570;0.000;0.000;2023-06-14T06:02:22;96802.74;;;25.13;48.08
30856;BME280;17570;0.000;0.000;2023-06-14T06:04:52;96798.70;;;25.10;48.27
30856;BME280;17570;0.000;0.000;2023-06-14T06:07:19;96800.73;;;25.08;48.46
30856;BME280;17570;0.000;0.000;2023-06-14T06:09:46;96800.55;;;25.10;48.23
30856;BME280;17570;0.000;0.000;2023-06-14T06:12:14;96801.66;;;25.21;48.02
30856;BME280;17570;0.000;0.000;2023-06-14T06:14:42;96803.01;;;25.30;47.91
30856;BME280;17570;0.000;0.000;2023-06-14T06:17:09;96800.89;;;25.38;47.72
30856;BME280;17570;0.000;0.000;2023-06-14T06:19:37;96799.95;;;25.51;47.68
30856;BME280;17570;0.000;0.000;2023-06-14T06:22:04;96808.88;;;25.57;47.47
30856;BME280;17570;0.000;0.000;2023-06-14T06:24:32;96798.63;;;25.60;47.64
30856;BME280;17570;0.000;0.000;2023-06-14T06:27:00;96801.86;;;25.62;47.69
30856;BME280;17570;0.000;0.000;2023-06-14T06:29:28;96800.62;;;25.65;46.97
30856;BME280;17570;0.000;0.000;2023-06-14T06:31:56;96800.97;;;25.68;47.00
30856;BME280;17570;0.000;0.000;2023-06-14T06:34:23;96806.28;;;25.68;47.09
30856;BME280;17570;0.000;0.000;2023-06-14T06:36:51;96805.05;;;25.71;46.44
30856;BME280;17570;0.000;0.000;2023-06-14T06:39:18;96806.02;;;25.77;46.61
30856;BME280;17570;0.000;0.000;2023-06-14T06:41:46;96806.17;;;25.82;46.38
30856;BME280;17570;0.000;0.000;2023-06-14T06:44:15;96804.70;;;25.86;46.52
30856;BME280;17570;0.000;0.000;2023-06-14T06:46:44;96809.56;;;26.07;47.22
30856;BME280;17570;0.000;0.000;2023-06-14T06:49:12;96811.83;;;26.22;47.59
30856;BME280;17570;0.000;0.000;2023-06-14T06:51:42;96811.28;;;26.32;47.26
30856;BME280;17570;0.000;0.000;2023-06-14T06:54:10;96801.58;;;26.37;47.21
30856;BME280;17570;0.000;0.000;2023-06-14T06:56:38;96806.22;;;26.42;46.95
30856;BME280;17570;0.000;0.000;2023-06-14T06:59:09;96804.09;;;26.51;46.67
30856;BME280;17570;0.000;0.000;2023-06-14T07:01:36;96808.86;;;26.60;46.36
30856;BME280;17570;0.000;0.000;2023-06-14T07:04:03;96809.11;;;26.70;45.83
30856;BME280;17570;0.000;0.000;2023-06-14T07:06:31;96808.55;;;26.80;45.32
30856;BME280;17570;0.000;0.000;2023-06-14T07:08:58;96807.42;;;26.88;45.27
30856;BME280;17570;0.000;0.000;2023-06-14T07:11:27;96811.61;;;26.95;44.63
30856;BME280;17570;0.000;0.000;2023-06-14T07:13:56;96816.25;;;27.00;44.50
30856;BME280;17570;0.000;0.000;2023-06-14T07:16:23;96814.27;;;27.07;43.97
30856;BME280;17570;0.000;0.000;2023-06-14T07:18:52;96820.92;;;27.16;43.54
30856;BME280;17570;0.000;0.000;2023-06-14T07:21:19;96826.97;;;27.24;43.56
30856;BME280;17570;0.000;0.000;2023-06-14T07:23:47;96822.55;;;27.29;43.47
30856;BME280;17570;0.000;0.000;2023-06-14T07:26:14;96825.91;;;27.36;43.38
30856;BME280;17570;0.000;0.000;2023-06-14T07:28:42;96828.47;;;27.43;43.28
30856;BME280;17570;0.000;0.000;2023-06-14T07:31:11;96826.72;;;27.49;42.72
30856;BME280;17570;0.000;0.000;2023-06-14T07:33:39;96821.74;;;27.52;42.49
30856;BME280;17570;0.000;0.000;2023-06-14T07:36:07;96823.71;;;27.57;42.19
30856;BME280;17570;0.000;0.000;2023-06-14T07:38:34;96833.08;;;27.59;42.76
30856;BME280;17570;0.000;0.000;2023-06-14T07:41:03;96835.53;;;27.61;43.41
30856;BME280;17570;0.000;0.000;2023-06-14T07:43:30;96831.01;;;27.61;43.46
30856;BME280;17570;0.000;0.000;2023-06-14T07:45:57;96827.86;;;27.64;43.76
30856;BME280;17570;0.000;0.000;2023-06-14T07:48:25;96830.77;;;27.63;43.57
30856;BME280;17570;0.000;0.000;2023-06-14T07:50:52;96818.24;;;27.63;43.68
30856;BME280;17570;0.000;0.000;2023-06-14T07:53:20;96823.58;;;27.63;43.42
30856;BME280;17570;0.000;0.000;2023-06-14T07:55:49;96817.44;;;27.63;43.30
30856;BME280;17570;0.000;0.000;2023-06-14T07:58:17;96818.48;;;27.62;43.25
30856;BME280;17570;0.000;0.000;2023-06-14T08:00:44;96817.19;;;27.64;43.81
30856;BME280;17570;0.000;0.000;2023-06-14T08:03:15;96825.19;;;27.64;43.48
30856;BME280;17570;0.000;0.000;2023-06-14T08:05:43;96823.12;;;27.66;43.10
30856;BME280;17570;0.000;0.000;2023-06-14T08:08:10;96826.84;;;27.65;43.42
30856;BME280;17570;0.000;0.000;2023-06-14T08:10:38;96824.49;;;27.69;42.85
30856;BME280;17570;0.000;0.000;2023-06-14T08:13:05;96831.47;;;27.70;42.85
30856;BME280;17570;0.000;0.000;2023-06-14T08:15:33;96822.80;;;27.75;42.96
30856;BME280;17570;0.000;0.000;2023-06-14T08:18:00;96821.50;;;27.77;42.86
30856;BME280;17570;0.000;0.000;2023-06-14T08:20:28;96836.59;;;27.71;43.10
30856;BME280;17570;0.000;0.000;2023-06-14T08:22:57;96835.40;;;27.67;44.58
30856;BME280;17570;0.000;0.000;2023-06-14T08:25:25;96828.91;;;27.87;43.40
30856;BME280;17570;0.000;0.000;2023-06-14T08:27:53;96833.64;;;27.96;43.55
30856;BME280;17570;0.000;0.000;2023-06-14T08:30:21;96840.13;;;28.01;42.96
30856;BME280;17570;0.000;0.000;2023-06-14T08:32:49;96842.78;;;28.12;42.74
30856;BME280;17570;0.000;0.000;2023-06-14T08:35:17;96838.35;;;28.18;42.83
30856;BME280;17570;0.000;0.000;2023-06-14T08:37:45;96842.48;;;28.26;42.28
30856;BME280;17570;0.000;0.000;2023-06-14T08:40:23;96846.80;;;28.27;41.85
30856;BME280;17570;0.000;0.000;2023-06-14T08:42:41;96854.66;;;28.33;42.10
30856;BME280;17570;0.000;0.000;2023-06-14T08:45:09;96849.69;;;28.37;41.87
30856;BME280;17570;0.000;0.000;2023-06-14T08:47:36;96854.88;;;28.43;41.45
30856;BME280;17570;0.000;0.000;2023-06-14T08:50:05;96854.97;;;28.48;41.27
30856;BME280;17570;0.000;0.000;2023-06-14T08:52:36;96853.45;;;28.53;42.04
30856;BME280;17570;0.000;0.000;2023-06-14T08:55:07;96852.98;;;28.56;41.79
30856;BME280;17570;0.000;0.000;2023-06-14T08:57:36;96855.98;;;28.59;41.22
30856;BME280;17570;0.000;0.000;2023-06-14T09:00:06;96848.53;;;28.61;41.23
30856;BME280;17570;0.000;0.000;2023-06-14T09:02:39;96850.24;;;28.67;40.93
30856;BME280;17570;0.000;0.000;2023-06-14T09:05:13;96845.23;;;28.71;41.32
30856;BME280;17570;0.000;0.000;2023-06-14T09:07:40;96843.70;;;28.75;41.37
30856;BME280;17570;0.000;0.000;2023-06-14T09:10:09;96849.94;;;28.81;41.03
30856;BME280;17570;0.000;0.000;2023-06-14T09:12:37;96857.23;;;28.85;40.81
30856;BME280;17570;0.000;0.000;2023-06-14T09:15:06;96849.30;;;28.90;40.96
30856;BME280;17570;0.000;0.000;2023-06-14T09:17:35;96849.69;;;29.11;41.26
30856;BME280;17570;0.000;0.000;2023-06-14T09:20:03;96836.16;;;29.17;41.69
30856;BME280;17570;0.000;0.000;2023-06-14T09:22:35;96846.04;;;29.17;40.75
30856;BME280;17570;0.000;0.000;2023-06-14T09:25:02;96840.95;;;29.15;40.27
30856;BME280;17570;0.000;0.000;2023-06-14T09:27:32;96835.09;;;29.18;40.44
30856;BME280;17570;0.000;0.000;2023-06-14T09:30:00;96846.92;;;29.22;40.28
30856;BME280;17570;0.000;0.000;2023-06-14T09:32:27;96845.05;;;27.80;42.51
30856;BME280;17570;0.000;0.000;2023-06-14T09:34:55;96848.91;;;28.53;42.10
30856;BME280;17570;0.000;0.000;2023-06-14T09:37:29;96841.62;;;28.94;42.62
30856;BME280;17570;0.000;0.000;2023-06-14T09:39:57;96836.73;;;29.19;42.47
30856;BME280;17570;0.000;0.000;2023-06-14T09:42:25;96836.08;;;29.29;42.04
30856;BME280;17570;0.000;0.000;2023-06-14T09:44:54;96832.23;;;29.42;41.42
30856;BME280;17570;0.000;0.000;2023-06-14T09:47:22;96832.09;;;29.48;41.55
30856;BME280;17570;0.000;0.000;2023-06-14T09:49:51;96823.09;;;29.55;41.47
30856;BME280;17570;0.000;0.000;2023-06-14T09:52:20;96832.00;;;29.60;41.35
30856;BME280;17570;0.000;0.000;2023-06-14T09:54:50;96832.58;;;29.62;40.68
30856;BME280;17570;0.000;0.000;2023-06-14T09:57:23;96833.13;;;29.64;41.25
30856;BME280;17570;0.000;0.000;2023-06-14T09:59:59;96841.22;;;29.69;41.04
30856;BME280;17570;0.000;0.000;2023-06-14T10:02:28;96841.73;;;29.66;40.54
30856;BME280;17570;0.000;0.000;2023-06-14T10:05:04;96835.32;;;29.67;40.46
30856;BME280;17570;0.000;0.000;2023-06-14T10:07:39;96834.00;;;29.70;40.74
30856;BME280;17570;0.000;0.000;2023-06-14T10:10:07;96834.26;;;29.68;41.01
30856;BME280;17570;0.000;0.000;2023-06-14T10:12:35;96827.10;;;29.74;40.96
30856;BME280;17570;0.000;0.000;2023-06-14T10:15:03;96828.55;;;29.82;41.24
30856;BME280;17570;0.000;0.000;2023-06-14T10:17:48;96834.52;;;29.89;40.27
30856;BME280;17570;0.000;0.000;2023-06-14T10:20:27;96823.38;;;29.97;40.02
30856;BME280;17570;0.000;0.000;2023-06-14T10:23:08;96819.41;;;29.99;40.07
30856;BME280;17570;0.000;0.000;2023-06-14T10:25:33;96816.85;;;30.10;40.23
30856;BME280;17570;0.000;0.000;2023-06-14T10:28:19;96814.63;;;30.23;39.94
30856;BME280;17570;0.000;0.000;2023-06-14T10:31:04;96811.09;;;30.45;40.29
30856;BME280;17570;0.000;0.000;2023-06-14T10:33:32;96815.51;;;30.56;40.30
30856;BME280;17570;0.000;0.000;2023-06-14T10:36:09;96807.02;;;30.64;39.39
30856;BME280;17570;0.000;0.000;2023-06-14T10:38:37;96803.43;;;30.81;39.65
30856;BME280;17570;0.000;0.000;2023-06-14T10:41:05;96808.83;;;30.86;39.29
30856;BME280;17570;0.000;0.000;2023-06-14T10:43:32;96810.25;;;30.93;39.18
30856;BME280;17570;0.000;0.000;2023-06-14T10:48:44;96801.40;;;30.93;37.22
30856;BME280;17570;0.000;0.000;2023-06-14T10:51:18;96802.63;;;30.80;37.20
30856;BME280;17570;0.000;0.000;2023-06-14T10:53:47;96808.80;;;30.81;37.61
30856;BME280;17570;0.000;0.000;2023-06-14T10:56:30;96796.95;;;30.77;36.74
30856;BME280;17570;0.000;0.000;2023-06-14T10:58:59;96801.20;;;30.72;37.25
30856;BME280;17570;0.000;0.000;2023-06-14T11:01:31;96799.09;;;30.74;37.71
30856;BME280;17570;0.000;0.000;2023-06-14T11:03:56;96799.09;;;30.74;38.42
30856;BME280;17570;0.000;0.000;2023-06-14T11:06:24;96782.95;;;30.69;37.72
30856;BME280;17570;0.000;0.000;2023-06-14T11:09:12;96791.48;;;30.66;37.48
30856;BME280;17570;0.000;0.000;2023-06-14T11:11:33;96791.70;;;30.60;36.83
30856;BME280;17570;0.000;0.000;2023-06-14T11:14:00;96798.86;;;30.54;37.11
30856;BME280;17570;0.000;0.000;2023-06-14T11:16:29;96797.02;;;30.55;37.05
30856;BME280;17570;0.000;0.000;2023-06-14T11:18:58;96795.19;;;30.60;37.01
30856;BME280;17570;0.000;0.000;2023-06-14T11:21:27;96794.62;;;30.58;36.86
30856;BME280;17570;0.000;0.000;2023-06-14T11:23:56;96797.87;;;30.60;36.86
30856;BME280;17570;0.000;0.000;2023-06-14T11:26:25;96795.73;;;30.62;38.11
30856;BME280;17570;0.000;0.000;2023-06-14T11:28:56;96782.91;;;30.64;38.14
30856;BME280;17570;0.000;0.000;2023-06-14T11:31:25;96797.34;;;30.63;38.68
30856;BME280;17570;0.000;0.000;2023-06-14T11:33:54;96793.05;;;30.62;38.46
30856;BME280;17570;0.000;0.000;2023-06-14T11:36:22;96792.29;;;30.67;38.94
30856;BME280;17570;0.000;0.000;2023-06-14T11:38:50;96787.73;;;30.67;38.12
30856;BME280;17570;0.000;0.000;2023-06-14T11:41:19;96781.14;;;30.75;37.93
30856;BME280;17570;0.000;0.000;2023-06-14T11:43:46;96771.77;;;30.78;37.68
30856;BME280;17570;0.000;0.000;2023-06-14T11:46:14;96776.09;;;30.79;37.27
30856;BME280;17570;0.000;0.000;2023-06-14T11:48:46;96781.48;;;30.84;37.59
30856;BME280;17570;0.000;0.000;2023-06-14T11:51:14;96785.23;;;30.83;37.55
30856;BME280;17570;0.000;0.000;2023-06-14T11:53:42;96775.59;;;30.87;38.08
30856;BME280;17570;0.000;0.000;2023-06-14T11:56:09;96774.59;;;30.93;37.16
30856;BME280;17570;0.000;0.000;2023-06-14T11:58:37;96770.61;;;31.00;37.06
30856;BME280;17570;0.000;0.000;2023-06-14T12:01:05;96766.38;;;31.10;37.10
30856;BME280;17570;0.000;0.000;2023-06-14T12:03:33;96770.77;;;31.21;36.37
30856;BME280;17570;0.000;0.000;2023-06-14T12:06:03;96774.84;;;31.29;36.35
30856;BME280;17570;0.000;0.000;2023-06-14T12:08:34;96766.59;;;31.35;37.15
30856;BME280;17570;0.000;0.000;2023-06-14T12:11:14;96768.52;;;31.45;37.04
30856;BME280;17570;0.000;0.000;2023-06-14T12:13:41;96774.98;;;31.49;37.34
30856;BME280;17570;0.000;0.000;2023-06-14T12:16:10;96782.79;;;31.56;37.02
30856;BME280;17570;0.000;0.000;2023-06-14T12:18:38;96770.06;;;31.83;36.69
30856;BME280;17570;0.000;0.000;2023-06-14T12:21:07;96767.19;;;32.00;36.34
30856;BME280;17570;0.000;0.000;2023-06-14T12:23:40;96758.08;;;32.11;36.14
30856;BME280;17570;0.000;0.000;2023-06-14T12:26:08;96762.42;;;32.28;35.97
30856;BME280;17570;0.000;0.000;2023-06-14T12:28:35;96753.33;;;32.39;35.83
30856;BME280;17570;0.000;0.000;2023-06-14T12:31:03;96754.42;;;32.48;35.47
30856;BME280;17570;0.000;0.000;2023-06-14T12:33:31;96755.78;;;32.61;35.83
30856;BME280;17570;0.000;0.000;2023-06-14T12:35:58;96749.05;;;32.73;36.54
30856;BME280;17570;0.000;0.000;2023-06-14T12:38:26;96738.31;;;32.84;36.50
30856;BME280;17570;0.000;0.000;2023-06-14T12:40:53;96735.64;;;32.94;36.71
30856;BME280;17570;0.000;0.000;2023-06-14T12:43:22;96734.52;;;33.10;37.41
30856;BME280;17570;0.000;0.000;2023-06-14T12:45:50;96726.41;;;33.36;37.02
30856;BME280;17570;0.000;0.000;2023-06-14T12:49:29;96729.77;;;33.82;36.83
30856;BME280;17570;0.000;0.000;2023-06-14T12:51:57;96720.02;;;33.91;36.49
